Time;durP1;ratioP1;P1;durP2;ratioP2;P2;SDS_P1;SDS_P2;PMS_P1;PMS_P2;Temp;Humidity;BMP_temperature;BMP_pressure;BME280_temperature;BME280_humidity;BME280_pressure;Samples;Min_cycle;Max_cycle;Signal;HPM_P1;HPM_P2
2023/10/21 00:01:05;;;;;;;;;;;;;;;10.42;100.00;98300.06;5054279;28;19920;-90
2023/10/21 00:03:31;;;;;;;;;;;;;;;10.39;100.00;98301.91;5037873;28;19920;-90
2023/10/21 00:06:22;;;;;;;;;;;;;;;10.38;100.00;98305.44;5054731;28;19916;-90
2023/10/21 00:08:48;;;;;;;;;;;;;;;10.38;100.00;98309.84;5054344;28;19923;-92
2023/10/21 00:11:16;;;;;;;;;;;;;;;10.36;100.00;98306.47;5045953;28;19925;-91
2023/10/21 00:13:41;;;;;;;;;;;;;;;10.39;100.00;98312.38;5053336;28;20313;-91
2023/10/21 00:16:06;;;;;;;;;;;;;;;10.43;100.00;98317.44;5055165;28;20054;-91
2023/10/21 00:18:40;;;;;;;;;;;;;;;10.36;100.00;98312.53;5051306;28;20004;-91
2023/10/21 00:21:08;;;;;;;;;;;;;;;10.35;100.00;98318.69;5059725;28;19924;-91
2023/10/21 00:23:33;;;;;;;;;;;;;;;10.32;100.00;98318.81;5058738;28;20406;-91
2023/10/21 00:26:03;;;;;;;;;;;;;;;10.33;100.00;98328.38;5056482;28;19997;-91
2023/10/21 00:28:28;;;;;;;;;;;;;;;10.34;100.00;98330.09;5056768;28;19917;-92
2023/10/21 00:30:54;;;;;;;;;;;;;;;10.38;100.00;98336.00;5069477;28;19927;-91
2023/10/21 00:33:19;;;;;;;;;;;;;;;10.31;100.00;98340.66;5073414;28;19919;-91
2023/10/21 00:35:48;;;;;;;;;;;;;;;10.29;100.00;98353.00;5070895;28;20007;-91
2023/10/21 00:38:14;;;;;;;;;;;;;;;10.25;100.00;98356.69;5037303;28;19925;-91
2023/10/21 00:40:48;;;;;;;;;;;;;;;10.29;100.00;98353.00;5056436;28;19962;-91
2023/10/21 00:43:29;;;;;;;;;;;;;;;10.36;100.00;98362.28;5061009;28;19970;-91
2023/10/21 00:45:56;;;;;;;;;;;;;;;10.30;100.00;98375.66;5068220;28;20244;-91
2023/10/21 00:48:21;;;;;;;;;;;;;;;10.42;100.00;98373.38;5065658;28;19913;-91
2023/10/21 00:50:48;;;;;;;;;;;;;;;10.34;100.00;98372.00;5053758;28;20015;-91
2023/10/21 00:53:13;;;;;;;;;;;;;;;10.45;100.00;98387.13;5039506;28;19968;-91
2023/10/21 00:55:43;;;;;;;;;;;;;;;10.44;100.00;98389.84;5061512;28;20380;-91
2023/10/21 00:58:08;;;;;;;;;;;;;;;10.48;100.00;98386.97;5070030;28;19920;-91
2023/10/21 01:00:34;;;;;;;;;;;;;;;10.42;100.00;98392.53;5039641;28;20288;-91
2023/10/21 01:02:59;;;;;;;;;;;;;;;10.43;100.00;98396.84;5066411;28;20277;-91
2023/10/21 01:05:25;;;;;;;;;;;;;;;10.54;100.00;98398.91;5058996;28;19913;-90
2023/10/21 01:07:58;;;;;;;;;;;;;;;10.60;100.00;98403.00;5055851;28;19917;-91
2023/10/21 01:10:23;;;;;;;;;;;;;;;10.50;100.00;98407.84;5083047;28;19921;-91
2023/10/21 01:12:48;;;;;;;;;;;;;;;10.45;100.00;98405.47;5067284;28;19920;-91
2023/10/21 01:15:19;;;;;;;;;;;;;;;10.54;100.00;98409.38;5045900;28;19924;-91
2023/10/21 01:17:51;;;;;;;;;;;;;;;10.58;100.00;98408.31;5062267;28;19921;-91
2023/10/21 01:20:18;;;;;;;;;;;;;;;10.54;100.00;98412.00;5055766;28;19968;-91
2023/10/21 01:22:43;;;;;;;;;;;;;;;10.50;100.00;98408.72;5055937;28;19928;-90
2023/10/21 01:25:09;;;;;;;;;;;;;;;10.48;100.00;98407.94;5045111;28;20273;-91
2023/10/21 01:27:34;;;;;;;;;;;;;;;10.51;100.00;98417.41;5050403;28;19923;-91
2023/10/21 01:30:00;;;;;;;;;;;;;;;10.44;100.00;98421.25;5055371;28;19920;-91
2023/10/21 01:32:25;;;;;;;;;;;;;;;10.52;100.00;98416.50;5055014;28;19920;-91
2023/10/21 01:34:51;;;;;;;;;;;;;;;10.52;100.00;98419.09;5055031;28;20000;-91
2023/10/21 01:37:16;;;;;;;;;;;;;;;10.46;100.00;98422.00;5055438;28;19931;-91
2023/10/21 01:39:41;;;;;;;;;;;;;;;10.50;100.00;98419.19;5070606;28;19913;-90
2023/10/21 01:42:09;;;;;;;;;;;;;;;10.48;100.00;98425.41;5072429;28;19964;-91
2023/10/21 01:44:55;;;;;;;;;;;;;;;10.55;100.00;98417.16;5072853;28;19962;-90
2023/10/21 01:47:20;;;;;;;;;;;;;;;10.56;100.00;98425.88;5055111;28;20054;-90
2023/10/21 01:49:47;;;;;;;;;;;;;;;10.56;100.00;98431.13;5063558;28;19951;-91
2023/10/21 01:52:19;;;;;;;;;;;;;;;10.55;100.00;98439.91;5057268;28;19935;-91
2023/10/21 01:54:54;;;;;;;;;;;;;;;10.63;100.00;98442.13;5054172;28;20027;-91
2023/10/21 01:57:20;;;;;;;;;;;;;;;10.68;100.00;98446.19;5072028;28;19995;-91
2023/10/21 01:59:45;;;;;;;;;;;;;;;10.82;100.00;98448.13;5068389;28;19944;-90
2023/10/21 02:02:11;;;;;;;;;;;;;;;10.83;100.00;98441.97;5058807;28;20371;-91
2023/10/21 02:04:38;;;;;;;;;;;;;;;10.85;100.00;98444.50;5052522;28;19924;-91
2023/10/21 02:07:04;;;;;;;;;;;;;;;10.82;100.00;98450.75;5060001;28;19921;-90
2023/10/21 02:09:32;;;;;;;;;;;;;;;10.83;100.00;98456.81;5072671;28;19923;-91
2023/10/21 02:12:06;;;;;;;;;;;;;;;10.86;100.00;98454.03;5055501;28;19917;-91
2023/10/21 02:14:33;;;;;;;;;;;;;;;10.90;100.00;98460.81;5060331;28;19948;-91
2023/10/21 02:16:58;;;;;;;;;;;;;;;10.99;100.00;98467.38;5064150;28;19923;-91
2023/10/21 02:19:25;;;;;;;;;;;;;;;11.02;100.00;98459.34;5048770;28;20806;-90
2023/10/21 02:21:50;;;;;;;;;;;;;;;10.97;100.00;98464.81;5050172;28;20315;-91
2023/10/21 02:24:22;;;;;;;;;;;;;;;11.06;100.00;98468.75;5034656;28;19921;-91
2023/10/21 02:26:49;;;;;;;;;;;;;;;11.20;100.00;98478.53;5028200;28;19917;-91
2023/10/21 02:29:15;;;;;;;;;;;;;;;11.11;100.00;98469.38;5051900;28;19988;-91
2023/10/21 02:31:43;;;;;;;;;;;;;;;11.19;100.00;98476.81;5034698;28;19916;-91
2023/10/21 02:34:12;;;;;;;;;;;;;;;11.15;100.00;98473.53;5034120;28;19916;-91
2023/10/21 02:36:37;;;;;;;;;;;;;;;11.20;100.00;98475.91;5030745;28;20343;-91
2023/10/21 02:39:07;;;;;;;;;;;;;;;11.30;100.00;98490.22;5045110;28;20000;-91
2023/10/21 02:41:33;;;;;;;;;;;;;;;11.26;100.00;98491.28;5020093;28;20399;-91
2023/10/21 02:43:58;;;;;;;;;;;;;;;11.16;100.00;98490.97;5033838;28;19913;-91
2023/10/21 02:46:23;;;;;;;;;;;;;;;11.24;100.00;98503.66;5034534;28;20281;-91
2023/10/21 02:48:52;;;;;;;;;;;;;;;11.29;100.00;98506.88;5033950;28;19921;-92
2023/10/21 02:51:18;;;;;;;;;;;;;;;11.23;100.00;98504.56;5033437;28;20087;-91
2023/10/21 02:53:46;;;;;;;;;;;;;;;11.25;100.00;98508.81;5033609;28;20143;-91
2023/10/21 02:56:15;;;;;;;;;;;;;;;11.20;100.00;98510.81;5030850;28;19913;-91
2023/10/21 02:58:41;;;;;;;;;;;;;;;11.25;100.00;98515.84;5021294;28;19921;-90
2023/10/21 03:01:26;;;;;;;;;;;;;;;11.25;100.00;98510.59;5047951;28;19929;-91
2023/10/21 03:03:58;;;;;;;;;;;;;;;11.35;100.00;98513.56;5031436;28;19921;-91
2023/10/21 03:06:23;;;;;;;;;;;;;;;11.34;100.00;98519.75;5035721;28;19917;-91
2023/10/21 03:08:51;;;;;;;;;;;;;;;11.35;100.00;98522.28;5033443;28;19924;-91
2023/10/21 03:11:16;;;;;;;;;;;;;;;11.33;100.00;98521.50;5030376;28;19928;-91
2023/10/21 03:13:44;;;;;;;;;;;;;;;11.28;100.00;98531.41;5046002;28;19928;-91
2023/10/21 03:16:17;;;;;;;;;;;;;;;11.36;100.00;98528.38;5050082;28;20023;-91
2023/10/21 03:18:45;;;;;;;;;;;;;;;11.25;100.00;98536.81;5038890;28;20423;-91
2023/10/21 03:21:11;;;;;;;;;;;;;;;11.25;100.00;98536.81;5040425;28;20084;-90
2023/10/21 03:23:45;;;;;;;;;;;;;;;11.33;100.00;98534.63;5047152;28;20003;-91
2023/10/21 03:26:15;;;;;;;;;;;;;;;11.30;100.00;98534.78;5032605;28;19917;-91
2023/10/21 03:28:43;;;;;;;;;;;;;;;11.33;100.00;98541.66;5041420;28;19939;-91
2023/10/21 03:31:14;;;;;;;;;;;;;;;11.38;100.00;98537.88;5038213;28;20323;-91
2023/10/21 03:33:40;;;;;;;;;;;;;;;11.34;100.00;98541.56;5050385;28;19924;-91
2023/10/21 03:36:07;;;;;;;;;;;;;;;11.40;100.00;98548.28;5054298;28;20426;-91
2023/10/21 03:38:33;;;;;;;;;;;;;;;11.29;100.00;98547.97;5043971;28;19917;-91
2023/10/21 03:40:59;;;;;;;;;;;;;;;11.36;100.00;98557.22;5053776;28;19998;-91
2023/10/21 03:43:28;;;;;;;;;;;;;;;11.43;100.00;98563.84;5037558;28;19916;-91
2023/10/21 03:46:00;;;;;;;;;;;;;;;11.56;100.00;98567.50;5053553;28;19921;-91
2023/10/21 03:48:26;;;;;;;;;;;;;;;11.46;100.00;98573.34;5047959;28;19932;-90
2023/10/21 03:50:51;;;;;;;;;;;;;;;11.50;100.00;98573.09;5034393;28;19924;-91
2023/10/21 03:53:19;;;;;;;;;;;;;;;11.44;100.00;98579.50;5037772;28;19924;-91
2023/10/21 03:55:49;;;;;;;;;;;;;;;11.53;100.00;98583.41;5020511;28;20402;-91
2023/10/21 03:58:17;;;;;;;;;;;;;;;11.56;100.00;98590.28;5035108;28;20011;-91
2023/10/21 04:00:42;;;;;;;;;;;;;;;11.45;100.00;98588.22;5038974;28;19917;-91
2023/10/21 04:03:07;;;;;;;;;;;;;;;11.60;100.00;98599.69;5046064;28;20292;-91
2023/10/21 04:05:34;;;;;;;;;;;;;;;11.53;100.00;98599.16;5053132;28;20007;-91
2023/10/21 04:08:05;;;;;;;;;;;;;;;11.65;100.00;98602.06;5029513;28;19917;-91
2023/10/21 04:10:31;;;;;;;;;;;;;;;11.70;100.00;98616.66;5021526;28;19970;-91
2023/10/21 04:12:59;;;;;;;;;;;;;;;11.62;100.00;98608.31;5035643;28;19948;-91
2023/10/21 04:15:44;;;;;;;;;;;;;;;11.61;100.00;98617.13;5023059;28;19913;-91
2023/10/21 04:18:09;;;;;;;;;;;;;;;11.72;100.00;98616.56;5049836;28;20371;-91
2023/10/21 04:20:38;;;;;;;;;;;;;;;11.76;100.00;98621.56;5063399;28;19920;-91
2023/10/21 04:23:03;;;;;;;;;;;;;;;11.78;100.00;98624.97;5054455;28;19929;-90
2023/10/21 04:25:29;;;;;;;;;;;;;;;11.86;100.00;98626.34;5078471;28;19920;-91
2023/10/21 04:27:56;;;;;;;;;;;;;;;11.84;100.00;98629.06;5078019;28;19921;-91
2023/10/21 04:30:22;;;;;;;;;;;;;;;11.87;100.00;98636.75;5055259;28;19913;-91
2023/10/21 04:32:50;;;;;;;;;;;;;;;12.00;100.00;98642.25;5053493;28;19917;-91
2023/10/21 04:35:34;;;;;;;;;;;;;;;12.01;100.00;98643.09;5055090;28;20377;-90
2023/10/21 04:38:07;;;;;;;;;;;;;;;12.01;100.00;98653.59;5066172;28;19916;-91
2023/10/21 04:40:33;;;;;;;;;;;;;;;11.97;100.00;98658.16;5069988;28;20399;-90
2023/10/21 04:43:03;;;;;;;;;;;;;;;12.14;100.00;98657.28;5050028;28;19956;-90
2023/10/21 04:45:37;;;;;;;;;;;;;;;11.99;100.00;98661.53;5052654;28;19916;-91
2023/10/21 04:48:03;;;;;;;;;;;;;;;12.09;100.00;98660.13;5074447;28;20002;-90
2023/10/21 04:50:29;;;;;;;;;;;;;;;12.01;100.00;98670.22;5060337;28;19916;-90
2023/10/21 04:52:56;;;;;;;;;;;;;;;11.97;100.00;98671.28;5052075;28;20012;-90
2023/10/21 04:55:24;;;;;;;;;;;;;;;11.95;100.00;98673.13;5070899;28;20003;-91
2023/10/21 04:57:55;;;;;;;;;;;;;;;12.03;100.00;98675.38;5037676;28;19978;-91
2023/10/21 05:00:20;;;;;;;;;;;;;;;11.90;100.00;98673.34;5059687;28;20233;-90
2023/10/21 05:02:45;;;;;;;;;;;;;;;11.81;100.00;98675.59;5074934;28;19943;-90
2023/10/21 05:05:12;;;;;;;;;;;;;;;11.77;100.00;98677.53;5058424;28;19916;-91
2023/10/21 05:07:38;;;;;;;;;;;;;;;11.77;100.00;98677.53;5055395;28;20014;-91
2023/10/21 05:10:04;;;;;;;;;;;;;;;11.81;100.00;98670.34;5052805;28;19928;-91
2023/10/21 05:12:30;;;;;;;;;;;;;;;11.73;100.00;98687.31;5039985;28;19920;-90
2023/10/21 05:14:55;;;;;;;;;;;;;;;11.75;100.00;98687.25;5033518;28;19920;-90
2023/10/21 05:17:20;;;;;;;;;;;;;;;11.59;100.00;98692.41;5056223;28;20434;-92
2023/10/21 05:19:46;;;;;;;;;;;;;;;11.52;100.00;98696.28;5046793;28;19921;-91
2023/10/21 05:22:12;;;;;;;;;;;;;;;11.49;100.00;98704.31;5041689;28;19921;-90
2023/10/21 05:24:38;;;;;;;;;;;;;;;11.42;100.00;98707.25;5040987;28;19923;-91
2023/10/21 05:27:03;;;;;;;;;;;;;;;11.37;100.00;98719.72;5026492;28;19933;-91
2023/10/21 05:29:29;;;;;;;;;;;;;;;11.35;100.00;98726.81;5030722;28;19921;-91
2023/10/21 05:31:54;;;;;;;;;;;;;;;11.38;100.00;98723.22;5033231;28;19963;-91
2023/10/21 05:34:22;;;;;;;;;;;;;;;11.33;100.00;98733.91;5034147;28;19971;-92
2023/10/21 05:36:48;;;;;;;;;;;;;;;11.38;100.00;98731.91;5053320;28;20336;-91
2023/10/21 05:39:13;;;;;;;;;;;;;;;11.35;100.00;98742.56;5033342;28;19924;-91
2023/10/21 05:41:41;;;;;;;;;;;;;;;11.56;100.00;98745.03;5041601;28;19928;-91
2023/10/21 05:44:07;;;;;;;;;;;;;;;11.47;100.00;98748.13;5048664;28;19917;-91
2023/10/21 05:46:33;;;;;;;;;;;;;;;11.42;100.00;98754.44;5044604;28;20027;-91
2023/10/21 05:48:59;;;;;;;;;;;;;;;11.42;100.00;98756.19;5032237;28;20387;-89
2023/10/21 05:51:25;;;;;;;;;;;;;;;11.49;100.00;98749.72;5035382;28;19917;-91
2023/10/21 05:53:51;;;;;;;;;;;;;;;11.44;100.00;98755.22;5047883;28;19920;-90
2023/10/21 05:56:16;;;;;;;;;;;;;;;11.64;100.00;98765.63;5049589;28;20238;-90
2023/10/21 05:58:42;;;;;;;;;;;;;;;11.59;100.00;98773.75;5047514;28;20078;-90
2023/10/21 06:01:08;;;;;;;;;;;;;;;11.55;100.00;98780.06;5036715;28;19997;-90
2023/10/21 06:03:35;;;;;;;;;;;;;;;11.50;100.00;98784.69;5044631;28;19924;-90
2023/10/21 06:06:00;;;;;;;;;;;;;;;11.57;100.00;98791.34;5043464;28;19934;-90
2023/10/21 06:08:25;;;;;;;;;;;;;;;11.68;100.00;98796.91;5056852;28;19936;-89
2023/10/21 06:10:51;;;;;;;;;;;;;;;11.75;100.00;98790.44;5034070;28;20269;-90
2023/10/21 06:13:16;;;;;;;;;;;;;;;11.69;100.00;98797.75;5037433;28;19925;-90
2023/10/21 06:15:43;;;;;;;;;;;;;;;11.72;100.00;98798.47;5041948;28;19920;-90
2023/10/21 06:18:08;;;;;;;;;;;;;;;11.78;100.00;98806.03;5030243;28;19921;-90
2023/10/21 06:20:34;;;;;;;;;;;;;;;11.86;100.00;98799.56;5048509;28;19982;-90
2023/10/21 06:23:00;;;;;;;;;;;;;;;11.95;100.00;98805.22;5033203;28;19925;-90
2023/10/21 06:25:25;;;;;;;;;;;;;;;11.99;100.00;98811.16;5048115;28;19921;-90
2023/10/21 06:27:50;;;;;;;;;;;;;;;12.09;100.00;98817.66;5032082;28;19916;-90
2023/10/21 06:30:16;;;;;;;;;;;;;;;12.16;100.00;98823.44;5050462;28;20265;-90
2023/10/21 06:32:41;;;;;;;;;;;;;;;12.15;100.00;98826.16;5031728;28;19923;-90
2023/10/21 06:35:07;;;;;;;;;;;;;;;12.24;100.00;98830.94;5032567;28;20384;-90
2023/10/21 06:37:33;;;;;;;;;;;;;;;12.28;100.00;98837.72;5029643;28;19979;-90
2023/10/21 06:39:59;;;;;;;;;;;;;;;12.35;100.00;98839.09;5046006;28;20309;-90
2023/10/21 06:42:24;;;;;;;;;;;;;;;12.38;100.00;98852.06;5064058;28;19929;-90
2023/10/21 06:44:50;;;;;;;;;;;;;;;12.27;100.00;98851.81;5058149;28;19916;-90
2023/10/21 06:47:16;;;;;;;;;;;;;;;12.33;100.00;98858.53;5065111;28;19961;-90
2023/10/21 06:49:45;;;;;;;;;;;;;;;12.37;100.00;98853.03;5032118;28;20002;-90
2023/10/21 06:52:10;;;;;;;;;;;;;;;12.48;100.00;98862.97;5046878;28;19966;-90
2023/10/21 06:54:35;;;;;;;;;;;;;;;12.50;100.00;98868.16;5032755;28;19924;-90
2023/10/21 06:57:01;;;;;;;;;;;;;;;12.46;100.00;98862.22;5033211;28;19924;-89
2023/10/21 06:59:26;;;;;;;;;;;;;;;12.59;100.00;98868.53;5050467;28;19952;-88
2023/10/21 07:01:52;;;;;;;;;;;;;;;12.53;100.00;98882.00;5019059;28;19929;-88
2023/10/21 07:04:18;;;;;;;;;;;;;;;12.59;100.00;98892.19;5025417;28;19923;-89
2023/10/21 07:06:47;;;;;;;;;;;;;;;12.63;100.00;98893.72;5057874;28;20381;-90
2023/10/21 07:09:12;;;;;;;;;;;;;;;12.74;100.00;98898.44;5058295;28;19924;-90
2023/10/21 07:11:37;;;;;;;;;;;;;;;12.83;100.00;98897.94;5033822;28;19916;-90
2023/10/21 07:14:03;;;;;;;;;;;;;;;12.88;100.00;98910.00;5060839;28;20345;-90
2023/10/21 07:16:38;;;;;;;;;;;;;;;12.89;100.00;98911.72;5042863;28;20270;-90
2023/10/21 07:19:03;;;;;;;;;;;;;;;12.72;100.00;98926.56;5035647;28;20270;-90
2023/10/21 07:21:29;;;;;;;;;;;;;;;12.60;100.00;98927.19;5048706;28;19928;-90
2023/10/21 07:23:54;;;;;;;;;;;;;;;12.77;100.00;98940.31;5070006;28;19917;-90
2023/10/21 07:26:20;;;;;;;;;;;;;;;12.67;100.00;98938.22;5072400;28;20153;-90
2023/10/21 07:28:45;;;;;;;;;;;;;;;12.64;100.00;98953.25;5052932;28;20390;-91
2023/10/21 07:31:10;;;;;;;;;;;;;;;12.61;100.00;98971.78;5046731;28;19916;-90
2023/10/21 07:33:36;;;;;;;;;;;;;;;12.56;100.00;98970.31;5071385;28;20008;-91
2023/10/21 07:36:04;;;;;;;;;;;;;;;12.58;100.00;98968.44;5077582;28;20288;-91
2023/10/21 07:38:30;;;;;;;;;;;;;;;12.62;100.00;98988.41;5056803;28;19999;-91
2023/10/21 07:40:56;;;;;;;;;;;;;;;12.55;100.00;98994.88;5064817;28;19954;-90
2023/10/21 07:43:21;;;;;;;;;;;;;;;12.46;100.00;99002.28;5059656;28;20439;-91
2023/10/21 07:45:46;;;;;;;;;;;;;;;12.52;100.00;99018.69;5060304;28;19920;-91
2023/10/21 07:48:12;;;;;;;;;;;;;;;12.58;100.00;99026.25;5062908;28;19963;-91
2023/10/21 07:50:38;;;;;;;;;;;;;;;12.41;100.00;99022.69;5050100;28;19916;-90
2023/10/21 07:53:03;;;;;;;;;;;;;;;12.51;100.00;99038.00;5064606;28;19931;-91
2023/10/21 07:55:30;;;;;;;;;;;;;;;12.51;100.00;99038.81;5044018;28;19917;-91
2023/10/21 07:57:55;;;;;;;;;;;;;;;12.53;100.00;99044.88;5060857;28;19923;-91
2023/10/21 08:00:21;;;;;;;;;;;;;;;12.61;100.00;99042.75;5056574;28;20011;-90
2023/10/21 08:02:46;;;;;;;;;;;;;;;12.85;100.00;99052.13;5060708;28;20344;-91
2023/10/21 08:05:13;;;;;;;;;;;;;;;13.06;100.00;99069.44;5055648;28;19942;-90
2023/10/21 08:07:41;;;;;;;;;;;;;;;13.82;100.00;99076.94;5065238;28;19916;-91
2023/10/21 08:10:07;;;;;;;;;;;;;;;14.79;100.00;99069.94;5068107;28;19927;-91
2023/10/21 08:12:36;;;;;;;;;;;;;;;14.69;100.00;99082.78;5081295;28;19912;-91
2023/10/21 08:15:10;;;;;;;;;;;;;;;14.46;100.00;99082.25;5053795;28;19916;-90
2023/10/21 08:17:35;;;;;;;;;;;;;;;14.25;100.00;99083.44;5051908;28;19939;-91
2023/10/21 08:20:04;;;;;;;;;;;;;;;14.06;100.00;99083.59;5045889;28;20008;-91
2023/10/21 08:22:30;;;;;;;;;;;;;;;14.14;100.00;99091.94;5064290;28;19916;-90
2023/10/21 08:24:56;;;;;;;;;;;;;;;14.11;100.00;99095.59;5054862;28;19916;-91
2023/10/21 08:27:23;;;;;;;;;;;;;;;14.08;100.00;99098.41;5071475;28;19916;-91
2023/10/21 08:29:48;;;;;;;;;;;;;;;14.20;100.00;99091.59;5076271;28;19920;-91
2023/10/21 08:32:16;;;;;;;;;;;;;;;15.12;98.00;99106.66;5044795;28;19916;-90
2023/10/21 08:34:41;;;;;;;;;;;;;;;16.35;91.41;99093.09;5048344;28;20312;-91
2023/10/21 08:37:09;;;;;;;;;;;;;;;17.43;85.27;99101.09;5054206;28;19953;-90
2023/10/21 08:39:35;;;;;;;;;;;;;;;17.47;84.83;99098.13;5062790;28;19913;-90
2023/10/21 08:42:02;;;;;;;;;;;;;;;17.54;82.90;99106.53;5059868;28;19917;-91
2023/10/21 08:44:27;;;;;;;;;;;;;;;17.74;80.85;99112.22;5054741;28;19970;-90
2023/10/21 08:46:56;;;;;;;;;;;;;;;17.62;79.87;99114.75;5072091;28;19920;-90
2023/10/21 08:49:22;;;;;;;;;;;;;;;17.71;79.96;99115.09;5050615;28;19924;-91
2023/10/21 08:51:49;;;;;;;;;;;;;;;17.52;77.49;99111.06;5072000;28;20455;-91
2023/10/21 08:54:16;;;;;;;;;;;;;;;16.93;80.72;99119.41;5049838;28;19917;-90
2023/10/21 08:56:42;;;;;;;;;;;;;;;16.38;82.27;99126.44;5053069;28;19913;-91
2023/10/21 08:59:08;;;;;;;;;;;;;;;16.08;83.96;99127.41;5060502;28;19916;-91
2023/10/21 09:01:35;;;;;;;;;;;;;;;15.64;85.54;99128.28;5070359;28;20261;-90
2023/10/21 09:04:00;;;;;;;;;;;;;;;15.49;86.06;99136.19;5077964;28;19938;-90
2023/10/21 09:06:25;;;;;;;;;;;;;;;15.29;85.67;99136.53;5052638;28;19917;-91
2023/10/21 09:08:50;;;;;;;;;;;;;;;15.12;87.61;99138.34;5055735;28;20045;-90
2023/10/21 09:11:17;;;;;;;;;;;;;;;15.11;85.62;99135.78;5064817;28;19919;-91
2023/10/21 09:13:42;;;;;;;;;;;;;;;14.98;87.14;99152.31;5056980;28;19916;-91
2023/10/21 09:16:25;;;;;;;;;;;;;;;14.93;86.73;99149.09;5064735;28;20265;-91
2023/10/21 09:18:53;;;;;;;;;;;;;;;14.52;88.01;99146.94;5063581;28;19917;-91
2023/10/21 09:21:38;;;;;;;;;;;;;;;14.43;89.03;99161.47;5069366;28;19920;-91
2023/10/21 09:24:06;;;;;;;;;;;;;;;14.63;86.41;99156.94;5042581;28;19916;-91
2023/10/21 09:26:33;;;;;;;;;;;;;;;14.62;88.17;99157.88;5069363;28;19952;-91
2023/10/21 09:29:03;;;;;;;;;;;;;;;14.79;87.48;99152.50;5063338;28;20294;-90
2023/10/21 09:31:40;;;;;;;;;;;;;;;15.00;85.24;99160.16;5046371;28;19920;-91
2023/10/21 09:34:06;;;;;;;;;;;;;;;14.74;85.34;99165.13;5063797;28;20011;-91
2023/10/21 09:36:38;;;;;;;;;;;;;;;14.51;87.43;99167.19;5063669;28;19996;-91
2023/10/21 09:39:04;;;;;;;;;;;;;;;14.44;88.76;99168.47;5069763;28;20040;-91
2023/10/21 09:41:29;;;;;;;;;;;;;;;14.51;87.20;99193.56;5056141;28;20449;-90
2023/10/21 09:43:56;;;;;;;;;;;;;;;14.51;86.22;99190.91;5064081;28;19923;-91
2023/10/21 09:46:25;;;;;;;;;;;;;;;14.38;87.94;99197.78;5055515;28;19934;-90
2023/10/21 09:48:51;;;;;;;;;;;;;;;14.39;86.60;99196.84;5052838;28;20368;-90
2023/10/21 09:51:18;;;;;;;;;;;;;;;14.51;85.34;99200.59;5057661;28;19940;-90
2023/10/21 09:53:47;;;;;;;;;;;;;;;14.47;86.28;99207.81;5040148;28;19924;-90
2023/10/21 09:56:14;;;;;;;;;;;;;;;14.62;85.02;99198.25;5067564;28;19913;-91
2023/10/21 09:58:40;;;;;;;;;;;;;;;14.68;85.28;99215.53;5051381;28;20288;-90
2023/10/21 10:01:07;;;;;;;;;;;;;;;14.72;83.22;99224.97;5089292;28;20368;-91
2023/10/21 10:03:36;;;;;;;;;;;;;;;14.84;83.24;99223.44;5072964;28;20371;-90
2023/10/21 10:06:04;;;;;;;;;;;;;;;15.06;84.08;99217.84;5057842;28;19916;-91
2023/10/21 10:08:33;;;;;;;;;;;;;;;15.10;84.02;99219.38;5056945;28;20210;-90
2023/10/21 10:11:01;;;;;;;;;;;;;;;14.98;83.82;99234.06;5051315;28;20395;-90
2023/10/21 10:13:28;;;;;;;;;;;;;;;14.86;82.39;99227.69;5060806;28;20361;-91
2023/10/21 10:15:55;;;;;;;;;;;;;;;14.86;81.91;99226.84;5056596;28;19920;-91
2023/10/21 10:18:21;;;;;;;;;;;;;;;14.96;81.00;99235.13;5047823;28;19913;-90
2023/10/21 10:20:49;;;;;;;;;;;;;;;15.02;80.89;99232.13;5053963;28;19920;-91
2023/10/21 10:23:14;;;;;;;;;;;;;;;15.12;79.95;99233.31;5066245;28;20353;-91
2023/10/21 10:25:44;;;;;;;;;;;;;;;15.35;79.58;99241.72;5053897;28;19923;-90
2023/10/21 10:28:17;;;;;;;;;;;;;;;16.21;75.76;99233.19;5052894;28;19923;-90
2023/10/21 10:30:46;;;;;;;;;;;;;;;16.96;74.08;99246.19;5054537;28;19938;-90
2023/10/21 10:33:15;;;;;;;;;;;;;;;17.01;71.26;99249.41;5080613;28;19917;-91
2023/10/21 10:36:12;;;;;;;;;;;;;;;17.39;69.69;99258.47;5053274;28;19919;-91
2023/10/21 10:38:44;;;;;;;;;;;;;;;17.02;68.94;99256.38;5078223;28;19912;-90
2023/10/21 10:41:11;;;;;;;;;;;;;;;16.90;69.54;99258.03;5061799;28;19921;-91
2023/10/21 10:43:52;;;;;;;;;;;;;;;16.50;72.46;99263.13;5036369;28;19916;-90
2023/10/21 10:46:19;;;;;;;;;;;;;;;16.17;71.38;99253.66;5079583;28;20353;-90
2023/10/21 10:48:46;;;;;;;;;;;;;;;16.60;70.19;99264.25;5069961;28;19919;-90
2023/10/21 10:51:15;;;;;;;;;;;;;;;17.10;68.37;99255.91;5052963;28;20158;-90
2023/10/21 10:53:43;;;;;;;;;;;;;;;16.82;67.77;99251.50;5058239;28;20004;-90
2023/10/21 10:56:14;;;;;;;;;;;;;;;16.23;70.22;99263.88;5068085;28;19921;-90
2023/10/21 10:58:42;;;;;;;;;;;;;;;15.84;71.95;99272.38;5067144;28;20479;-90
2023/10/21 11:01:17;;;;;;;;;;;;;;;15.88;72.13;99258.91;5052148;28;19912;-90
2023/10/21 11:03:43;;;;;;;;;;;;;;;15.78;72.84;99265.63;5036959;28;19940;-90
2023/10/21 11:06:12;;;;;;;;;;;;;;;15.72;71.42;99279.19;5050320;28;19913;-90
2023/10/21 11:08:38;;;;;;;;;;;;;;;15.48;74.34;99271.75;5048616;28;20365;-89
2023/10/21 11:11:08;;;;;;;;;;;;;;;15.47;72.92;99279.75;5059290;28;19961;-89
2023/10/21 11:13:33;;;;;;;;;;;;;;;15.22;74.64;99279.34;5035522;28;19916;-90
2023/10/21 11:16:00;;;;;;;;;;;;;;;15.11;75.40;99278.25;5057920;28;19917;-89
2023/10/21 11:18:25;;;;;;;;;;;;;;;15.34;73.07;99287.50;5060676;28;20429;-89
2023/10/21 11:20:52;;;;;;;;;;;;;;;15.33;73.93;99275.25;5045584;28;19999;-89
2023/10/21 11:23:21;;;;;;;;;;;;;;;15.21;72.29;99269.75;5064110;28;20272;-89
2023/10/21 11:29:08;;;;;;;;;;;;;;;15.20;73.53;99283.88;5067325;28;20712;-89
2023/10/21 11:34:37;;;;;;;;;;;;;;;14.99;75.98;99295.59;5054372;28;20046;-89
2023/10/21 11:37:04;;;;;;;;;;;;;;;14.93;74.76;99294.16;5037600;28;19917;-89
2023/10/21 11:39:31;;;;;;;;;;;;;;;15.00;73.65;99298.16;5081281;28;20033;-89
2023/10/21 11:41:56;;;;;;;;;;;;;;;14.81;74.83;99303.59;5064330;28;19921;-89
2023/10/21 11:47:28;;;;;;;;;;;;;;;15.02;71.64;99296.28;5078528;28;20436;-89
2023/10/21 11:50:15;;;;;;;;;;;;;;;14.84;72.84;99292.00;5076945;28;19916;-90
2023/10/21 11:52:42;;;;;;;;;;;;;;;14.94;72.80;99292.34;5063019;28;19916;-90
2023/10/21 12:35:52;;;;;;;;;;;;;;;15.69;67.17;99321.63;5071437;28;20367;-90
2023/10/21 12:44:09;;;;;;;;;;;;;;;15.32;71.01;99358.00;4993808;28;19993;-90
2023/10/21 12:46:38;;;;;;;;;;;;;;;15.24;69.75;99321.47;5044310;28;19913;-90
2023/10/21 12:49:12;;;;;;;;;;;;;;;15.31;70.47;99333.38;5056581;28;19970;-90
2023/10/21 12:51:38;;;;;;;;;;;;;;;15.53;68.83;99317.22;5068433;28;19920;-89
2023/10/21 12:54:09;;;;;;;;;;;;;;;15.76;68.66;99309.78;5055198;28;19921;-90
2023/10/21 12:56:35;;;;;;;;;;;;;;;16.40;65.94;99322.78;5046357;28;20360;-89
2023/10/21 12:59:00;;;;;;;;;;;;;;;17.00;62.76;99316.50;5069662;28;19917;-89
2023/10/21 13:01:28;;;;;;;;;;;;;;;17.05;63.17;99318.84;5066196;28;19920;-90
2023/10/21 13:03:56;;;;;;;;;;;;;;;16.60;63.79;99319.78;5066953;28;20027;-90
2023/10/21 13:06:21;;;;;;;;;;;;;;;16.25;64.22;99324.56;5057496;28;20014;-89
2023/10/21 13:08:46;;;;;;;;;;;;;;;15.88;65.88;99311.72;5059035;28;20344;-90
2023/10/21 13:11:14;;;;;;;;;;;;;;;15.56;67.66;99317.03;5036949;28;19917;-90
2023/10/21 13:13:40;;;;;;;;;;;;;;;15.46;66.80;99326.44;5071699;28;19916;-90
2023/10/21 13:19:08;;;;;;;;;;;;;;;15.41;66.79;99320.53;5056799;28;20284;-89
2023/10/21 13:21:35;;;;;;;;;;;;;;;15.40;66.91;99317.06;5052541;28;19924;-89
2023/10/21 13:24:04;;;;;;;;;;;;;;;15.31;67.48;99328.13;5053940;28;20360;-89
2023/10/21 13:26:30;;;;;;;;;;;;;;;15.14;68.11;99315.88;5057687;28;20312;-90
2023/10/21 13:28:55;;;;;;;;;;;;;;;15.04;67.11;99318.16;5062390;28;19913;-89
2023/10/21 13:31:20;;;;;;;;;;;;;;;15.00;68.03;99340.38;5060202;28;19917;-90
2023/10/21 13:33:45;;;;;;;;;;;;;;;15.11;65.90;99333.66;5048282;28;19917;-89
2023/10/21 13:39:18;;;;;;;;;;;;;;;14.86;68.05;99333.19;5061229;28;20332;-90
2023/10/21 13:41:43;;;;;;;;;;;;;;;14.96;67.37;99345.91;5054801;28;20379;-90
2023/10/21 13:44:09;;;;;;;;;;;;;;;14.93;66.89;99343.41;5056105;28;19966;-90